createdAt,value
2019-01-31T00:01:47.358Z,99326.98
2019-01-31T00:04:25.404Z,99326.11
2019-01-31T00:07:06.901Z,99329.95
2019-01-31T00:09:44.880Z,99335.78
2019-01-31T00:12:20.079Z,99332.30
2019-01-31T00:14:54.635Z,99327.72
2019-01-31T00:17:44.438Z,99319.37
2019-01-31T00:20:34.047Z,99325.41
2019-01-31T00:23:05.628Z,99320.09
2019-01-31T00:25:52.191Z,99319.67
2019-01-31T00:28:29.656Z,99318.03
2019-01-31T00:31:04.131Z,99318.13
2019-01-31T00:33:35.660Z,99319.01
2019-01-31T00:36:13.310Z,99317.13
2019-01-31T00:38:57.285Z,99314.66
2019-01-31T00:41:46.852Z,99315.37
2019-01-31T00:44:24.170Z,99311.48
2019-01-31T00:47:04.603Z,99314.27
2019-01-31T00:49:45.205Z,99312.48
2019-01-31T00:52:34.654Z,99315.27
2019-01-31T00:55:23.964Z,99320.22
2019-01-31T00:57:58.227Z,99318.31
2019-01-31T01:00:38.442Z,99315.20
2019-01-31T01:03:26.799Z,99311.16
2019-01-31T01:06:20.918Z,99311.45
2019-01-31T01:09:07.596Z,99313.88
2019-01-31T01:11:34.419Z,99312.03
2019-01-31T01:14:11.801Z,99256.39
2019-01-31T01:16:55.216Z,99315.69
2019-01-31T01:19:38.877Z,99312.16
2019-01-31T01:22:15.929Z,99319.98
2019-01-31T01:24:53.249Z,99321.37
2019-01-31T01:27:36.523Z,99326.05
2019-01-31T01:30:20.205Z,99332.61
2019-01-31T01:32:54.339Z,99333.94
2019-01-31T01:35:31.622Z,99333.39
2019-01-31T01:38:06.228Z,99337.38
2019-01-31T01:40:40.983Z,99341.16
2019-01-31T01:43:12.511Z,99336.72
2019-01-31T01:45:59.240Z,99338.26
2019-01-31T01:48:33.651Z,99349.50
2019-01-31T01:51:17.210Z,99356.72
2019-01-31T01:54:19.073Z,99352.98
2019-01-31T01:56:50.671Z,99361.67
2019-01-31T01:59:25.060Z,99365.16
2019-01-31T02:02:14.455Z,99365.28
2019-01-31T02:04:57.890Z,99364.77
2019-01-31T02:07:38.538Z,99363.67
2019-01-31T02:10:12.910Z,99371.92
2019-01-31T02:13:00.676Z,99364.19
2019-01-31T02:15:48.310Z,99318.03
2019-01-31T02:18:28.803Z,99365.45
2019-01-31T02:21:18.382Z,99374.95
2019-01-31T02:23:58.761Z,99380.45
2019-01-31T02:26:36.271Z,99381.33
2019-01-31T02:29:19.682Z,99381.98
2019-01-31T02:32:00.112Z,99389.15
2019-01-31T02:34:40.269Z,99389.76
2019-01-31T02:37:14.476Z,99392.11
2019-01-31T02:39:49.079Z,99390.42
2019-01-31T02:42:22.089Z,99396.62
2019-01-31T02:44:56.213Z,99395.08
2019-01-31T02:47:45.842Z,99401.78
2019-01-31T02:50:35.320Z,99400.45
2019-01-31T02:53:25.403Z,99397.95
2019-01-31T02:56:22.448Z,99383.91
2019-01-31T02:59:03.075Z,99405.98
2019-01-31T03:01:43.380Z,99408.83
2019-01-31T03:04:15.042Z,99409.61
2019-01-31T03:06:46.752Z,99409.46
2019-01-31T03:09:21.240Z,99417.83
2019-01-31T03:11:58.875Z,99417.83
2019-01-31T03:14:30.478Z,99411.27
2019-01-31T03:17:23.137Z,99425.95
2019-01-31T03:20:12.510Z,99419.37
2019-01-31T03:22:47.010Z,99421.00
2019-01-31T03:25:27.167Z,99420.05
2019-01-31T03:28:31.707Z,99424.86
2019-01-31T03:31:21.280Z,99423.98
2019-01-31T03:34:04.683Z,99426.20
2019-01-31T03:36:36.271Z,99416.38
2019-01-31T03:39:19.944Z,99419.34
2019-01-31T03:42:09.817Z,99417.58
2019-01-31T03:44:44.409Z,99423.27
2019-01-31T03:47:18.742Z,99426.30
2019-01-31T03:49:53.299Z,99431.17
2019-01-31T03:52:53.205Z,99434.10
2019-01-31T03:55:27.736Z,99439.66
2019-01-31T03:58:08.219Z,99439.79
2019-01-31T04:00:48.670Z,99438.84
2019-01-31T04:03:26.088Z,99442.69
2019-01-31T04:05:57.674Z,99446.30
2019-01-31T04:08:26.131Z,99449.60
2019-01-31T04:10:54.657Z,99438.77
2019-01-31T04:13:22.933Z,99449.84
2019-01-31T04:15:51.334Z,99450.92
2019-01-31T04:18:19.777Z,99447.55
2019-01-31T04:20:51.074Z,99450.28
2019-01-31T04:23:18.447Z,99455.14
2019-01-31T04:25:46.803Z,99453.52
2019-01-31T04:28:15.245Z,99459.44
2019-01-31T04:30:43.604Z,99461.66
2019-01-31T04:33:14.150Z,99463.35
2019-01-31T04:35:42.556Z,99457.05
2019-01-31T04:38:10.843Z,99460.83
2019-01-31T04:40:39.275Z,99465.27
2019-01-31T04:43:07.689Z,99464.81
2019-01-31T04:45:35.987Z,99471.77
2019-01-31T04:48:04.612Z,99467.47
2019-01-31T04:50:33.152Z,99465.91
2019-01-31T04:53:01.605Z,99465.77
2019-01-31T04:55:30.068Z,99466.45
2019-01-31T04:57:58.430Z,99464.88
2019-01-31T05:00:26.787Z,99474.13
2019-01-31T05:02:55.202Z,99468.29
2019-01-31T05:05:23.586Z,99470.44
2019-01-31T05:07:53.290Z,99465.02
2019-01-31T05:10:21.637Z,99463.18
2019-01-31T05:12:50.051Z,99470.58
2019-01-31T05:15:18.360Z,99467.68
2019-01-31T05:17:46.729Z,99473.62
2019-01-31T05:20:17.249Z,99467.78
2019-01-31T05:22:45.682Z,99472.29
2019-01-31T05:25:14.809Z,99467.03
2019-01-31T05:27:43.285Z,99464.45
2019-01-31T05:30:14.156Z,99468.81
2019-01-31T05:32:42.561Z,99473.45
2019-01-31T05:35:11.871Z,99467.31
2019-01-31T05:37:40.291Z,99478.33
2019-01-31T05:40:12.054Z,99476.34
2019-01-31T05:42:40.477Z,99479.89
2019-01-31T05:45:20.333Z,99481.59
2019-01-31T05:47:57.764Z,99482.83
2019-01-31T05:50:28.293Z,99485.28
2019-01-31T05:52:56.724Z,99492.06
2019-01-31T05:55:25.097Z,99492.13
2019-01-31T05:57:53.386Z,99495.53
2019-01-31T06:00:25.106Z,99496.94
2019-01-31T06:02:53.430Z,99500.55
2019-01-31T06:05:21.705Z,99505.08
2019-01-31T06:07:50.060Z,99504.53
2019-01-31T06:10:18.470Z,99507.36
2019-01-31T06:12:46.863Z,99512.59
2019-01-31T06:15:18.671Z,99515.77
2019-01-31T06:17:47.122Z,99513.05
2019-01-31T06:20:23.517Z,99518.56
2019-01-31T06:22:51.832Z,99520.03
2019-01-31T06:25:20.175Z,99524.02
2019-01-31T06:27:48.588Z,99516.79
2019-01-31T06:30:18.565Z,99520.40
2019-01-31T06:32:47.002Z,99525.51
2019-01-31T06:35:15.580Z,99519.00
2019-01-31T06:37:43.869Z,99527.86
2019-01-31T06:40:15.475Z,99524.52
2019-01-31T06:42:44.025Z,99524.52
2019-01-31T06:45:17.496Z,99522.22
2019-01-31T06:47:45.987Z,99529.68
2019-01-31T06:50:14.311Z,99521.38
2019-01-31T06:52:42.651Z,99524.71
2019-01-31T06:55:12.304Z,99525.70
2019-01-31T06:57:40.744Z,99523.95
2019-01-31T07:00:20.814Z,99528.05
2019-01-31T07:02:49.106Z,99530.43
2019-01-31T07:05:17.414Z,99526.14
2019-01-31T07:07:45.813Z,99527.39
2019-01-31T07:10:20.225Z,99530.27
2019-01-31T07:12:48.551Z,99540.39
2019-01-31T07:15:16.978Z,99537.34
2019-01-31T07:17:45.338Z,99543.05
2019-01-31T07:20:17.540Z,99549.53
2019-01-31T07:22:46.803Z,99554.61
2019-01-31T07:25:22.145Z,99552.55
2019-01-31T07:27:53.019Z,99557.59
2019-01-31T07:30:23.012Z,99563.64
2019-01-31T07:32:51.286Z,99561.72
2019-01-31T07:35:19.651Z,99566.49
2019-01-31T07:37:47.929Z,99569.69
2019-01-31T07:40:22.104Z,99562.82
2019-01-31T07:42:50.456Z,99564.50
2019-01-31T07:45:24.352Z,99567.73
2019-01-31T07:47:52.780Z,99566.72
2019-01-31T07:50:21.119Z,99570.74
2019-01-31T07:52:49.474Z,99570.16
2019-01-31T07:55:17.987Z,99571.91
2019-01-31T07:57:46.266Z,99577.68
2019-01-31T08:00:20.787Z,99582.84
2019-01-31T08:02:49.170Z,99580.88
2019-01-31T08:05:20.342Z,99589.15
2019-01-31T08:07:49.459Z,99589.69
2019-01-31T08:10:32.764Z,99589.97
2019-01-31T08:13:01.041Z,99587.98
2019-01-31T08:15:29.331Z,99587.88
2019-01-31T08:17:57.720Z,99592.48
2019-01-31T08:20:26.097Z,99599.68
2019-01-31T08:22:54.399Z,99604.84
2019-01-31T08:25:25.337Z,99597.78
2019-01-31T08:27:54.820Z,99597.53
2019-01-31T08:30:31.982Z,99599.88
2019-01-31T08:33:00.271Z,99605.69
2019-01-31T08:35:28.649Z,99605.35
2019-01-31T08:37:57.045Z,99610.52
2019-01-31T08:40:25.348Z,99608.77
2019-01-31T08:42:53.638Z,99611.51
2019-01-31T08:45:22.046Z,99614.36
2019-01-31T08:47:50.407Z,99614.22
2019-01-31T08:50:21.467Z,99615.41
2019-01-31T08:52:52.769Z,99623.98
2019-01-31T08:55:22.195Z,99615.31
2019-01-31T08:57:50.557Z,99620.43
2019-01-31T09:00:21.484Z,99617.38
2019-01-31T09:02:50.160Z,99625.40
2019-01-31T09:05:25.869Z,99622.09
2019-01-31T09:07:54.733Z,99629.13
2019-01-31T09:10:28.987Z,99621.56
2019-01-31T09:12:59.399Z,99622.97
2019-01-31T09:15:28.939Z,99632.70
2019-01-31T09:17:57.278Z,99646.80
2019-01-31T09:20:29.127Z,99641.09
2019-01-31T09:23:12.418Z,99635.39
2019-01-31T09:26:10.498Z,99647.34
2019-01-31T09:28:45.080Z,99636.98
2019-01-31T09:31:34.102Z,99630.08
2019-01-31T09:34:08.604Z,99637.84
2019-01-31T09:37:07.975Z,99637.70
2019-01-31T09:39:54.537Z,99643.44
2019-01-31T09:42:43.996Z,99637.23
2019-01-31T09:45:15.551Z,99643.64
2019-01-31T09:47:55.785Z,99639.45
2019-01-31T09:50:50.886Z,99639.57
2019-01-31T09:53:29.103Z,99644.69
2019-01-31T09:56:12.548Z,99647.95
2019-01-31T09:59:03.652Z,99645.34
2019-01-31T10:02:09.982Z,99644.83
2019-01-31T10:04:44.109Z,99648.86
2019-01-31T10:07:21.667Z,99651.05
2019-01-31T10:10:14.316Z,99659.53
2019-01-31T10:13:04.938Z,99653.50
2019-01-31T10:15:51.510Z,99660.92
2019-01-31T10:18:41.644Z,99661.90
2019-01-31T10:21:16.226Z,99656.39
2019-01-31T10:23:59.863Z,99653.95
2019-01-31T10:26:56.203Z,99664.65
2019-01-31T10:29:46.146Z,99663.55
2019-01-31T10:32:34.707Z,99663.22
2019-01-31T10:35:18.163Z,99658.51
2019-01-31T10:37:52.441Z,99661.33
2019-01-31T10:40:26.909Z,99656.83
2019-01-31T10:43:12.794Z,99653.70
2019-01-31T10:45:47.286Z,99647.55
2019-01-31T10:48:21.767Z,99643.08
2019-01-31T10:51:08.455Z,99652.94
2019-01-31T10:53:40.093Z,99653.56
2019-01-31T10:56:38.427Z,99621.20
2019-01-31T10:59:10.039Z,99654.55
2019-01-31T11:01:50.190Z,99652.78
2019-01-31T11:04:36.636Z,99652.77
2019-01-31T11:07:24.973Z,99653.80
2019-01-31T11:09:59.082Z,99655.09
2019-01-31T11:13:00.860Z,99648.77
2019-01-31T11:15:44.496Z,99650.75
2019-01-31T11:18:22.096Z,99647.45
2019-01-31T11:20:56.545Z,99641.93
2019-01-31T11:23:28.928Z,99647.15
2019-01-31T11:26:12.631Z,99643.33
2019-01-31T11:29:13.995Z,99646.05
2019-01-31T11:31:58.612Z,99639.39
2019-01-31T11:34:42.242Z,99645.48
2019-01-31T11:37:46.688Z,99640.36
2019-01-31T11:40:55.191Z,99639.80
2019-01-31T11:43:35.669Z,99638.18
2019-01-31T11:46:22.565Z,99637.23
2019-01-31T11:48:54.105Z,99620.63
2019-01-31T11:51:49.683Z,99620.63
2019-01-31T11:54:24.214Z,99632.30
2019-01-31T11:57:15.240Z,99631.62
2019-01-31T11:59:43.591Z,99628.18
2019-01-31T12:02:12.124Z,99626.09
2019-01-31T12:04:40.568Z,99631.87
2019-01-31T12:07:08.979Z,99627.36
2019-01-31T12:09:37.254Z,99626.84
2019-01-31T12:12:05.625Z,99626.06
2019-01-31T12:14:33.968Z,99629.59
2019-01-31T12:17:02.335Z,99621.65
2019-01-31T12:19:30.624Z,99617.14
2019-01-31T12:21:59.025Z,99615.77
2019-01-31T12:24:27.493Z,99620.55
2019-01-31T12:26:55.821Z,99625.43
2019-01-31T12:29:24.144Z,99623.06
2019-01-31T12:31:52.487Z,99614.78
2019-01-31T12:34:20.927Z,99616.56
2019-01-31T12:36:49.292Z,99617.81
2019-01-31T12:39:17.675Z,99614.31
2019-01-31T12:41:46.092Z,99608.39
2019-01-31T12:44:14.435Z,99603.30
2019-01-31T12:46:42.707Z,99595.81
2019-01-31T12:49:11.115Z,99600.16
2019-01-31T12:51:39.391Z,99595.77
2019-01-31T12:54:07.713Z,99593.78
2019-01-31T12:56:36.085Z,99584.84
2019-01-31T12:59:04.615Z,99589.63
2019-01-31T13:01:32.963Z,99586.34
2019-01-31T13:04:01.333Z,99584.83
2019-01-31T13:06:29.744Z,99583.06
2019-01-31T13:08:58.090Z,99575.87
2019-01-31T13:11:26.487Z,99577.58
2019-01-31T13:13:54.796Z,99575.52
2019-01-31T13:16:23.179Z,99573.64
2019-01-31T13:18:51.590Z,99572.03
2019-01-31T13:21:20.880Z,99565.14
2019-01-31T13:23:49.921Z,99563.59
2019-01-31T13:26:18.355Z,99558.77
2019-01-31T13:28:46.753Z,99553.70
2019-01-31T13:31:15.116Z,99553.70
2019-01-31T13:33:46.565Z,99564.72
2019-01-31T13:36:14.244Z,99571.12
2019-01-31T13:38:42.622Z,99568.09
2019-01-31T13:41:11.123Z,99568.31
2019-01-31T13:43:39.472Z,99574.36
2019-01-31T13:46:09.212Z,99577.84
2019-01-31T13:48:37.530Z,99565.47
2019-01-31T13:51:07.340Z,99571.23
2019-01-31T13:53:35.726Z,99571.23
2019-01-31T13:56:06.139Z,99567.21
2019-01-31T13:58:34.713Z,99541.58
2019-01-31T14:01:03.132Z,99565.03
2019-01-31T14:03:31.451Z,99572.91
2019-01-31T14:05:59.791Z,99567.95
2019-01-31T14:08:28.233Z,99568.26
2019-01-31T14:10:56.494Z,99574.92
2019-01-31T14:13:24.799Z,99569.76
2019-01-31T14:15:53.946Z,99572.47
2019-01-31T14:18:22.584Z,99572.28
2019-01-31T14:20:50.866Z,99575.33
2019-01-31T14:23:19.207Z,99571.86
2019-01-31T14:25:47.623Z,99573.78
2019-01-31T14:28:15.996Z,99574.36
2019-01-31T14:30:44.356Z,99573.42
2019-01-31T14:33:14.328Z,99575.97
2019-01-31T14:35:42.687Z,99575.23
2019-01-31T14:38:11.077Z,99574.70
2019-01-31T14:40:39.393Z,99580.20
2019-01-31T14:43:07.662Z,99573.23
2019-01-31T14:45:35.932Z,99574.91
2019-01-31T14:48:06.212Z,99577.62
2019-01-31T14:50:35.955Z,99587.50
2019-01-31T14:53:04.927Z,99578.97
2019-01-31T14:55:33.287Z,99580.57
2019-01-31T14:58:01.643Z,99577.88
2019-01-31T15:00:33.988Z,99585.45
2019-01-31T15:03:02.388Z,99581.69
2019-01-31T15:05:30.737Z,99583.36
2019-01-31T15:07:59.097Z,99584.51
2019-01-31T15:10:30.113Z,99581.89
2019-01-31T15:12:58.547Z,99577.80
2019-01-31T15:15:27.002Z,99579.20
2019-01-31T15:17:55.436Z,99574.97
2019-01-31T15:20:35.804Z,99571.83
2019-01-31T15:22:56.084Z,99574.55
2019-01-31T15:25:24.579Z,99582.45
2019-01-31T15:27:52.942Z,99583.94
2019-01-31T15:30:30.200Z,99586.23
2019-01-31T15:32:58.558Z,99585.42
2019-01-31T15:35:26.926Z,99582.09
2019-01-31T15:37:55.311Z,99576.52
2019-01-31T15:40:29.904Z,99572.42
2019-01-31T15:42:58.261Z,99563.73
2019-01-31T15:45:26.598Z,99566.09
2019-01-31T15:47:55.128Z,99569.59
2019-01-31T15:50:23.456Z,99566.33
2019-01-31T15:52:51.789Z,99566.24
2019-01-31T15:55:23.127Z,99565.63
2019-01-31T15:57:51.535Z,99563.39
2019-01-31T16:00:27.416Z,99557.11
2019-01-31T16:02:55.855Z,99555.02
2019-01-31T16:05:24.214Z,99554.08
2019-01-31T16:07:52.595Z,99550.80
2019-01-31T16:10:21.011Z,99548.93
2019-01-31T16:12:49.343Z,99550.84
2019-01-31T16:15:18.914Z,99544.41
2019-01-31T16:17:47.268Z,99544.19
2019-01-31T16:20:15.709Z,99543.81
2019-01-31T16:22:44.095Z,99552.55
2019-01-31T16:25:12.475Z,99546.27
2019-01-31T16:27:40.749Z,99541.02
2019-01-31T16:30:17.358Z,99535.33
2019-01-31T16:32:45.665Z,99540.95
2019-01-31T16:35:17.254Z,99540.08
2019-01-31T16:37:46.664Z,99538.24
2019-01-31T16:40:17.390Z,99541.85
2019-01-31T16:42:45.831Z,99534.59
2019-01-31T16:45:16.269Z,99542.81
2019-01-31T16:47:44.602Z,99539.77
2019-01-31T16:50:17.111Z,99536.61
2019-01-31T16:52:45.587Z,99537.25
2019-01-31T16:55:16.586Z,99535.35
2019-01-31T16:57:45.695Z,99540.36
2019-01-31T17:00:22.862Z,99544.81
2019-01-31T17:02:51.152Z,99530.16
2019-01-31T17:05:22.603Z,99532.11
2019-01-31T17:07:51.099Z,99525.66
2019-01-31T17:10:19.451Z,99525.73
2019-01-31T17:12:47.737Z,99522.86
2019-01-31T17:15:18.815Z,99516.08
2019-01-31T17:17:47.232Z,99511.05
2019-01-31T17:20:18.780Z,99507.56
2019-01-31T17:22:47.109Z,99506.78
2019-01-31T17:25:15.536Z,99510.83
2019-01-31T17:27:44.088Z,99508.01
2019-01-31T17:30:15.670Z,99506.33
2019-01-31T17:32:44.111Z,99508.45
2019-01-31T17:35:12.658Z,99503.81
2019-01-31T17:37:41.061Z,99506.61
2019-01-31T17:40:18.235Z,99500.13
2019-01-31T17:42:46.626Z,99495.83
2019-01-31T17:45:29.634Z,99494.13
2019-01-31T17:47:47.762Z,99495.08
2019-01-31T17:50:19.170Z,99487.71
2019-01-31T17:52:49.156Z,99493.67
2019-01-31T17:55:25.216Z,99485.77
2019-01-31T17:57:53.602Z,99485.18
2019-01-31T18:00:32.361Z,99482.22
2019-01-31T18:03:00.772Z,99481.64
2019-01-31T18:05:29.135Z,99474.31
2019-01-31T18:07:57.976Z,99476.02
2019-01-31T18:10:27.244Z,99463.39
2019-01-31T18:12:55.523Z,99462.00
2019-01-31T18:15:26.066Z,99456.45
2019-01-31T18:17:54.907Z,99464.29
2019-01-31T18:20:24.037Z,99459.56
2019-01-31T18:22:52.322Z,99456.77
2019-01-31T18:25:20.696Z,99459.13
2019-01-31T18:27:53.075Z,99456.41
2019-01-31T18:30:33.384Z,99453.69
2019-01-31T18:33:01.656Z,99449.91
2019-01-31T18:35:29.975Z,99450.28
2019-01-31T18:37:58.766Z,99458.77
2019-01-31T18:40:33.885Z,99459.78
2019-01-31T18:43:02.831Z,99455.97
2019-01-31T18:45:36.401Z,99453.37
2019-01-31T18:48:07.060Z,99460.58
2019-01-31T18:50:40.758Z,99460.96
2019-01-31T18:53:09.112Z,99460.52
2019-01-31T18:55:37.635Z,99449.50
2019-01-31T18:58:06.986Z,99451.27
2019-01-31T19:00:38.663Z,99444.92
2019-01-31T19:03:08.177Z,99446.02
2019-01-31T19:05:37.560Z,99439.36
2019-01-31T19:08:08.833Z,99437.14
2019-01-31T19:10:43.303Z,99444.65
2019-01-31T19:13:07.373Z,99442.55
2019-01-31T19:15:35.825Z,99446.28
2019-01-31T19:18:06.334Z,99443.25
2019-01-31T19:20:36.885Z,99369.91
2019-01-31T19:23:07.177Z,99447.03
2019-01-31T19:25:35.482Z,99444.81
2019-01-31T19:28:05.354Z,99440.63
2019-01-31T19:30:36.778Z,99436.65
2019-01-31T19:33:06.305Z,99430.45
2019-01-31T19:35:34.855Z,99433.48
2019-01-31T19:38:03.421Z,99434.06
2019-01-31T19:40:37.308Z,99440.40
2019-01-31T19:43:06.396Z,99438.18
2019-01-31T19:45:43.129Z,99436.80
2019-01-31T19:48:11.627Z,99438.52
2019-01-31T19:50:39.951Z,99438.52
2019-01-31T19:53:08.448Z,99430.48
2019-01-31T19:55:36.929Z,99435.15
2019-01-31T19:58:05.505Z,99429.46
2019-01-31T20:00:34.832Z,99427.38
2019-01-31T20:03:03.602Z,99414.55
2019-01-31T20:05:32.138Z,99406.58
2019-01-31T20:08:03.423Z,99405.76
2019-01-31T20:10:33.028Z,99402.83
2019-01-31T20:13:01.996Z,99400.00
2019-01-31T20:15:31.343Z,99395.81
2019-01-31T20:17:59.969Z,99392.71
2019-01-31T20:20:31.459Z,99393.73
2019-01-31T20:23:00.687Z,99397.20
2019-01-31T20:25:30.778Z,99402.21
2019-01-31T20:28:00.986Z,99402.59
2019-01-31T20:30:33.303Z,99395.30
2019-01-31T20:33:02.379Z,99394.55
2019-01-31T20:35:30.874Z,99391.58
2019-01-31T20:37:59.910Z,99381.55
2019-01-31T20:40:31.396Z,99389.14
2019-01-31T20:43:01.521Z,99384.93
2019-01-31T20:45:32.491Z,99376.37
2019-01-31T20:48:00.883Z,99375.64
2019-01-31T20:50:32.799Z,99375.44
2019-01-31T20:53:01.408Z,99372.33
2019-01-31T20:55:30.162Z,99364.48
2019-01-31T20:57:58.440Z,99363.52
2019-01-31T21:00:38.006Z,99361.17
2019-01-31T21:03:08.626Z,99355.55
2019-01-31T21:05:37.119Z,99352.38
2019-01-31T21:08:06.918Z,99353.13
2019-01-31T21:10:35.250Z,99355.47
2019-01-31T21:13:03.938Z,99347.80
2019-01-31T21:15:32.391Z,99347.86
2019-01-31T21:18:00.684Z,99349.53
2019-01-31T21:20:29.117Z,99345.71
2019-01-31T21:22:57.389Z,99339.64
2019-01-31T21:25:25.730Z,99345.41
2019-01-31T21:27:54.060Z,99339.86
2019-01-31T21:30:32.403Z,99339.25
2019-01-31T21:33:16.765Z,99336.02
2019-01-31T21:35:46.087Z,99328.53
2019-01-31T21:38:14.605Z,99328.38
2019-01-31T21:40:43.193Z,99318.50
2019-01-31T21:43:11.564Z,99315.59
2019-01-31T21:45:40.926Z,99309.83
2019-01-31T21:48:10.407Z,99305.47
2019-01-31T21:50:47.443Z,99300.94
2019-01-31T21:53:17.705Z,99299.79
2019-01-31T21:55:58.368Z,99291.52
2019-01-31T21:58:34.965Z,99289.16
2019-01-31T22:01:11.500Z,99287.37
2019-01-31T22:03:40.762Z,99282.05
2019-01-31T22:06:09.226Z,99285.13
2019-01-31T22:08:37.549Z,99278.33
2019-01-31T22:11:06.081Z,99277.87
2019-01-31T22:13:34.509Z,99279.84
2019-01-31T22:16:03.004Z,99272.50
2019-01-31T22:18:31.412Z,99272.74
2019-01-31T22:20:59.771Z,99269.36
2019-01-31T22:23:28.445Z,99265.89
2019-01-31T22:25:56.763Z,99272.42
2019-01-31T22:28:25.145Z,99273.15
2019-01-31T22:30:53.488Z,99280.45
2019-01-31T22:33:23.493Z,99277.50
2019-01-31T22:35:51.768Z,99279.34
2019-01-31T22:38:20.200Z,99280.76
2019-01-31T22:40:48.462Z,99275.50
2019-01-31T22:43:16.817Z,99273.41
2019-01-31T22:45:45.228Z,99273.45
2019-01-31T22:48:13.579Z,99274.98
2019-01-31T22:50:42.007Z,99268.39
2019-01-31T22:53:10.476Z,99276.53
2019-01-31T22:55:38.957Z,99268.25
2019-01-31T22:58:07.226Z,99268.43
2019-01-31T23:00:49.443Z,99257.61
2019-01-31T23:03:17.755Z,99259.24
2019-01-31T23:05:46.098Z,99260.00
2019-01-31T23:08:14.447Z,99261.95
2019-01-31T23:10:42.779Z,99259.66
2019-01-31T23:13:11.233Z,99258.62
2019-01-31T23:15:39.646Z,99255.31
2019-01-31T23:18:08.025Z,99247.79
2019-01-31T23:20:36.435Z,99244.16
2019-01-31T23:23:04.702Z,99241.45
2019-01-31T23:25:39.741Z,99247.31
2019-01-31T23:28:03.124Z,99247.37
2019-01-31T23:30:31.515Z,99241.19
2019-01-31T23:32:59.911Z,99233.55
2019-01-31T23:35:28.302Z,99223.91
2019-01-31T23:37:56.693Z,99225.16
2019-01-31T23:40:25.051Z,99219.48
2019-01-31T23:42:53.435Z,99216.50
2019-01-31T23:45:21.762Z,99211.64
2019-01-31T23:47:50.138Z,99209.77
2019-01-31T23:50:18.477Z,99196.52
2019-01-31T23:52:46.992Z,99205.33
2019-01-31T23:55:18.610Z,99200.53
2019-01-31T23:57:46.942Z,99195.25
